Metar Aviation Weather Data EGOS RAF Shawbury

11°C Temp
9°C Dewpoint
88% Humidity
Temperature
19 KM/H
12 MPH
10 KTS
200°
South South
West

Wind Speed
Clear
Conditions
Pressure 1031 (hPa) - 30.44 (in)
Visibility 6.2 (mi) - 10.0 (km)

Current Conditions
EGOS
RAF Shawbury
Metar :EGOS 260050Z AUTO 20010KT 9999 NCD 11/09 Q1031
Wed 26th September 01:50 am

RAF Shawbury
  Metar Aviation API Data Provided by https://www.checkwx.com/ PHP scripts by weather34.com ©2018